北京 の空港の天気 - METARとTAF

北京首都国際空港 ( ZBAA / PEK ) - 中国 北京市
飛行場実況気象(Metar)
観測時間10/21 00:30 CST (10/20 16:30 UTC)
風向・風速静穏 0m/s
視程6000m
天気現象
なし
気温6℃
湿度93%
気圧1024hPa
METARZBAA 201630Z 00000MPS 6000 NSC 06/05 Q1024 NOSIG
過去の天気等 Google飛行場航空写真 Wunderground天気予報

過去48時間のMETAR

飛行場予報(TAF)
発表時間: 10/20 17:30 CST (10/20 09:30 UTC)
予報対象時間: 20日20時 CST ~ 21日20時 CST
風向・風速南 4m/s
視程4000m
天気現象もや
なし
TAF ZBAA 200930Z 2012/2112 18004MPS 4000 BR NSC TX16/2107Z TN03/2022Z